createdAt,value
2022-11-10T00:01:24.902Z,5.74
2022-11-10T00:03:51.918Z,5.68
2022-11-10T00:06:18.961Z,5.56
2022-11-10T00:08:47.518Z,5.54
2022-11-10T00:11:14.358Z,5.50
2022-11-10T00:13:41.267Z,5.54
2022-11-10T00:16:11.168Z,5.54
2022-11-10T00:18:39.295Z,5.48
2022-11-10T00:21:08.262Z,5.30
2022-11-10T00:23:35.564Z,5.36
2022-11-10T00:26:02.860Z,5.43
2022-11-10T00:28:31.399Z,5.25
2022-11-10T00:31:04.612Z,5.38
2022-11-10T00:33:31.442Z,5.44
2022-11-10T00:36:04.226Z,5.49
2022-11-10T00:38:31.122Z,5.50
2022-11-10T00:40:59.037Z,5.42
2022-11-10T00:43:27.007Z,5.40
2022-11-10T00:45:55.998Z,5.53
2022-11-10T00:48:23.106Z,5.44
2022-11-10T00:50:50.098Z,5.27
2022-11-10T00:53:18.615Z,5.41
2022-11-10T00:55:45.488Z,5.55
2022-11-10T00:58:12.556Z,5.60
2022-11-10T01:00:39.504Z,5.53
2022-11-10T01:03:07.566Z,5.42
2022-11-10T01:05:38.066Z,5.34
2022-11-10T01:08:05.252Z,5.47
2022-11-10T01:10:33.541Z,5.58
2022-11-10T01:13:00.388Z,5.67
2022-11-10T01:15:28.222Z,5.77
2022-11-10T01:17:56.263Z,5.79
2022-11-10T01:20:23.758Z,5.76
2022-11-10T01:22:51.724Z,5.78
2022-11-10T01:25:18.487Z,5.74
2022-11-10T01:27:48.677Z,5.76
2022-11-10T01:30:15.552Z,5.72
2022-11-10T01:32:42.555Z,5.74
2022-11-10T01:35:12.350Z,5.87
2022-11-10T01:37:39.121Z,5.97
2022-11-10T01:40:07.504Z,6.06
2022-11-10T01:42:44.488Z,6.01
2022-11-10T01:45:41.844Z,5.94
2022-11-10T01:48:11.465Z,6.02
2022-11-10T01:50:41.597Z,6.18
2022-11-10T01:53:12.989Z,6.20
2022-11-10T01:55:43.118Z,6.09
2022-11-10T01:58:12.047Z,6.04
2022-11-10T02:00:40.334Z,5.98
2022-11-10T02:03:13.170Z,5.93
2022-11-10T02:05:40.303Z,5.90
2022-11-10T02:08:07.643Z,6.04
2022-11-10T02:10:34.502Z,6.03
2022-11-10T02:13:01.322Z,5.98
2022-11-10T02:15:28.702Z,5.90
2022-11-10T02:17:56.826Z,5.88
2022-11-10T02:20:23.914Z,5.94
2022-11-10T02:22:52.011Z,5.94
2022-11-10T02:25:21.393Z,5.88
2022-11-10T02:27:48.174Z,5.77
2022-11-10T02:30:16.003Z,5.68
2022-11-10T02:32:42.763Z,5.69
2022-11-10T02:35:10.093Z,5.71
2022-11-10T02:37:38.319Z,5.70
2022-11-10T02:40:07.853Z,5.68
2022-11-10T02:42:34.705Z,5.71
2022-11-10T02:45:02.670Z,5.85
2022-11-10T02:47:29.454Z,5.80
2022-11-10T02:49:56.254Z,5.82
2022-11-10T02:52:22.999Z,5.78
2022-11-10T02:54:49.759Z,5.72
2022-11-10T02:57:17.917Z,5.73
2022-11-10T02:59:44.665Z,5.87
2022-11-10T03:02:11.700Z,5.94
2022-11-10T03:04:38.470Z,6.02
2022-11-10T03:07:05.620Z,6.02
2022-11-10T03:09:32.550Z,5.90
2022-11-10T03:11:59.562Z,5.86
2022-11-10T03:14:27.674Z,5.79
2022-11-10T03:16:54.679Z,5.71
2022-11-10T03:19:21.428Z,5.72
2022-11-10T03:21:50.427Z,5.88
2022-11-10T03:24:17.159Z,5.90
2022-11-10T03:26:43.999Z,5.91
2022-11-10T03:29:10.913Z,5.85
2022-11-10T03:31:40.231Z,5.93
2022-11-10T03:34:07.211Z,5.99
2022-11-10T03:36:34.152Z,5.88
2022-11-10T03:39:01.160Z,5.84
2022-11-10T03:41:27.911Z,5.78
2022-11-10T03:43:54.853Z,5.96
2022-11-10T03:46:21.612Z,5.99
2022-11-10T03:48:53.563Z,5.88
2022-11-10T03:51:21.519Z,5.81
2022-11-10T03:53:48.374Z,5.76
2022-11-10T03:56:15.384Z,5.75
2022-11-10T03:58:42.266Z,5.71
2022-11-10T04:01:09.044Z,5.76
2022-11-10T04:03:36.039Z,5.80
2022-11-10T04:06:04.414Z,5.70
2022-11-10T04:08:32.492Z,5.67
2022-11-10T04:10:59.336Z,5.71
2022-11-10T04:13:26.246Z,5.81
2022-11-10T04:15:53.049Z,5.78
2022-11-10T04:18:20.154Z,5.69
2022-11-10T04:20:47.508Z,5.65
2022-11-10T04:23:15.933Z,5.61
2022-11-10T04:25:44.866Z,5.59
2022-11-10T04:28:11.600Z,5.59
2022-11-10T04:30:38.437Z,5.56
2022-11-10T04:33:05.186Z,5.66
2022-11-10T04:35:36.435Z,5.67
2022-11-10T04:38:03.180Z,5.61
2022-11-10T04:40:31.320Z,5.59
2022-11-10T04:42:58.034Z,5.60
2022-11-10T04:45:26.064Z,5.58
2022-11-10T04:47:52.812Z,5.59
2022-11-10T04:50:19.831Z,5.57
2022-11-10T04:52:47.616Z,5.58
2022-11-10T04:55:17.964Z,5.53
2022-11-10T04:57:46.137Z,5.49
2022-11-10T05:00:15.309Z,5.45
2022-11-10T05:02:42.098Z,5.46
2022-11-10T05:05:09.946Z,5.47
2022-11-10T05:07:38.469Z,5.46
2022-11-10T05:10:08.696Z,5.47
2022-11-10T05:12:37.330Z,5.52
2022-11-10T05:15:06.791Z,5.56
2022-11-10T05:17:34.632Z,5.48
2022-11-10T05:20:05.940Z,5.45
2022-11-10T05:22:34.365Z,5.44
2022-11-10T05:25:01.934Z,5.40
2022-11-10T05:27:30.193Z,5.40
2022-11-10T05:29:57.205Z,5.37
2022-11-10T05:32:27.618Z,5.31
2022-11-10T05:34:54.761Z,5.25
2022-11-10T05:37:22.782Z,5.22
2022-11-10T05:39:49.785Z,5.21
2022-11-10T05:42:17.585Z,5.21
2022-11-10T05:44:44.320Z,5.19
2022-11-10T05:47:11.122Z,5.21
2022-11-10T05:49:39.547Z,5.22
2022-11-10T05:52:06.313Z,5.29
2022-11-10T05:54:33.255Z,5.25
2022-11-10T05:57:00.001Z,5.25
2022-11-10T05:59:27.009Z,5.21
2022-11-10T06:01:53.977Z,5.22
2022-11-10T06:04:21.851Z,5.24
2022-11-10T06:06:50.093Z,5.25
2022-11-10T06:09:19.006Z,5.17
2022-11-10T06:11:45.789Z,5.28
2022-11-10T06:14:12.699Z,5.26
2022-11-10T06:16:42.072Z,5.24
2022-11-10T06:19:08.967Z,5.10
2022-11-10T06:21:35.991Z,5.09
2022-11-10T06:24:13.311Z,5.13
2022-11-10T06:26:40.169Z,5.26
2022-11-10T06:29:07.103Z,5.28
2022-11-10T06:31:33.986Z,5.24
2022-11-10T06:34:03.534Z,5.27
2022-11-10T06:36:30.323Z,5.27
2022-11-10T06:38:57.473Z,5.43
2022-11-10T06:41:26.834Z,5.39
2022-11-10T06:43:54.170Z,5.33
2022-11-10T06:46:23.278Z,5.27
2022-11-10T06:48:50.322Z,5.33
2022-11-10T06:51:19.330Z,5.41
2022-11-10T06:53:46.581Z,5.44
2022-11-10T06:56:15.494Z,5.41
2022-11-10T06:58:47.387Z,5.34
2022-11-10T07:01:22.628Z,5.32
2022-11-10T07:04:17.696Z,5.32
2022-11-10T07:06:38.626Z,5.34
2022-11-10T07:09:05.453Z,5.35
2022-11-10T07:11:32.389Z,5.37
2022-11-10T07:14:00.588Z,5.41
2022-11-10T07:16:27.802Z,5.52
2022-11-10T07:18:54.888Z,5.53
2022-11-10T07:21:32.239Z,5.60
2022-11-10T07:24:00.012Z,5.69
2022-11-10T07:26:28.781Z,5.67
2022-11-10T07:28:56.979Z,5.62
2022-11-10T07:31:26.011Z,5.60
2022-11-10T07:33:55.922Z,5.61
2022-11-10T07:36:25.457Z,5.62
2022-11-10T07:38:53.568Z,5.67
2022-11-10T07:41:21.879Z,5.70
2022-11-10T07:43:51.411Z,5.72
2022-11-10T07:46:18.169Z,5.80
2022-11-10T07:48:46.737Z,5.85
2022-11-10T07:51:13.701Z,5.97
2022-11-10T07:53:41.671Z,5.90
2022-11-10T07:56:08.767Z,5.90
2022-11-10T07:58:36.875Z,5.93
2022-11-10T08:01:04.127Z,5.96
2022-11-10T08:03:32.673Z,5.99
2022-11-10T08:06:01.195Z,5.95
2022-11-10T08:08:28.275Z,6.01
2022-11-10T08:10:58.357Z,6.01
2022-11-10T08:13:27.750Z,6.08
2022-11-10T08:15:54.594Z,6.09
2022-11-10T08:18:23.661Z,6.13
2022-11-10T08:20:51.065Z,6.15
2022-11-10T08:23:20.024Z,6.17
2022-11-10T08:25:48.274Z,6.27
2022-11-10T08:28:17.898Z,6.31
2022-11-10T08:30:46.603Z,6.31
2022-11-10T08:33:22.071Z,6.36
2022-11-10T08:35:52.133Z,6.41
2022-11-10T08:38:24.027Z,6.46
2022-11-10T08:40:52.173Z,6.48
2022-11-10T08:43:20.318Z,6.52
2022-11-10T08:45:47.685Z,6.55
2022-11-10T08:48:18.146Z,6.55
2022-11-10T08:50:45.202Z,6.56
2022-11-10T08:53:14.597Z,6.56
2022-11-10T08:55:44.513Z,6.55
2022-11-10T08:58:13.093Z,6.55
2022-11-10T09:00:42.446Z,6.53
2022-11-10T09:03:12.478Z,6.52
2022-11-10T09:05:39.806Z,6.51
2022-11-10T09:08:08.527Z,6.48
2022-11-10T09:10:38.821Z,6.49
2022-11-10T09:13:13.686Z,6.46
2022-11-10T09:15:41.488Z,6.53
2022-11-10T09:18:10.351Z,6.56
2022-11-10T09:20:38.239Z,6.58
2022-11-10T09:23:05.926Z,6.59
2022-11-10T09:25:33.248Z,6.60
2022-11-10T09:28:00.370Z,6.62
2022-11-10T09:30:30.892Z,6.63
2022-11-10T09:33:01.823Z,6.68
2022-11-10T09:35:30.913Z,6.68
2022-11-10T09:37:58.728Z,6.71
2022-11-10T09:40:33.190Z,6.72
2022-11-10T09:43:02.986Z,6.73
2022-11-10T09:45:39.101Z,6.71
2022-11-10T09:48:13.362Z,6.72
2022-11-10T09:50:46.894Z,6.71
2022-11-10T09:53:20.029Z,6.72
2022-11-10T09:55:50.199Z,6.75
2022-11-10T09:58:17.545Z,6.79
2022-11-10T10:00:56.225Z,6.81
2022-11-10T10:03:33.743Z,6.83
2022-11-10T10:06:09.636Z,6.84
2022-11-10T10:09:11.495Z,6.83
2022-11-10T10:11:54.560Z,6.87
2022-11-10T10:14:41.549Z,6.88
2022-11-10T10:17:26.913Z,6.90
2022-11-10T10:20:03.958Z,6.91
2022-11-10T10:23:01.756Z,6.90
2022-11-10T10:25:33.592Z,6.89
2022-11-10T10:28:08.492Z,6.86
2022-11-10T10:30:39.395Z,6.84
2022-11-10T10:33:16.931Z,6.83
2022-11-10T10:35:48.457Z,6.78
2022-11-10T10:38:24.447Z,6.75
2022-11-10T10:40:59.211Z,6.76
2022-11-10T10:43:29.054Z,6.78
2022-11-10T10:46:16.293Z,6.81
2022-11-10T10:48:53.900Z,6.83
2022-11-10T10:51:32.412Z,6.86
2022-11-10T10:54:01.892Z,6.87
2022-11-10T10:56:33.630Z,6.92
2022-11-10T10:59:04.732Z,6.81
2022-11-10T11:01:40.448Z,6.87
2022-11-10T11:04:31.595Z,6.98
2022-11-10T11:07:02.173Z,7.13
2022-11-10T11:09:30.903Z,7.25
2022-11-10T11:12:04.662Z,7.37
2022-11-10T11:14:34.961Z,7.39
2022-11-10T11:17:04.616Z,7.49
2022-11-10T11:19:35.160Z,7.58
2022-11-10T11:22:32.718Z,7.67
2022-11-10T11:25:11.025Z,7.74
2022-11-10T11:27:47.287Z,7.79
2022-11-10T11:30:21.959Z,7.82
2022-11-10T11:33:20.695Z,7.84
2022-11-10T11:35:57.788Z,7.87
2022-11-10T11:38:31.808Z,7.93
2022-11-10T11:41:08.752Z,7.96
2022-11-10T11:44:02.110Z,7.99
2022-11-10T11:46:43.661Z,7.99
2022-11-10T11:49:41.104Z,7.92
2022-11-10T11:52:17.547Z,7.86
2022-11-10T11:55:03.502Z,7.73
2022-11-10T11:57:42.532Z,7.63
2022-11-10T12:00:22.101Z,7.59
2022-11-10T12:03:04.870Z,7.52
2022-11-10T12:05:47.915Z,7.38
2022-11-10T12:08:27.002Z,7.45
2022-11-10T12:11:03.955Z,7.48
2022-11-10T12:14:00.400Z,7.48
2022-11-10T12:16:30.441Z,7.49
2022-11-10T12:19:07.547Z,7.50
2022-11-10T12:21:44.467Z,7.50
2022-11-10T12:24:29.397Z,7.50
2022-11-10T12:27:00.947Z,7.48
2022-11-10T12:29:33.953Z,7.52
2022-11-10T12:32:14.007Z,7.55
2022-11-10T12:34:43.448Z,7.57
2022-11-10T12:37:23.515Z,7.58
2022-11-10T12:40:02.405Z,7.58
2022-11-10T12:42:31.463Z,7.54
2022-11-10T12:45:04.105Z,7.59
2022-11-10T12:47:37.865Z,7.65
2022-11-10T12:50:20.254Z,7.69
2022-11-10T12:52:52.079Z,7.70
2022-11-10T12:55:33.438Z,7.71
2022-11-10T12:58:01.029Z,7.72
2022-11-10T13:00:30.625Z,7.85
2022-11-10T13:03:00.262Z,7.86
2022-11-10T13:05:37.545Z,7.83
2022-11-10T13:08:35.696Z,8.10
2022-11-10T13:11:30.494Z,8.47
2022-11-10T13:14:01.951Z,8.68
2022-11-10T13:16:51.588Z,8.85
2022-11-10T13:19:53.233Z,8.97
2022-11-10T13:22:41.063Z,9.17
2022-11-10T13:25:50.698Z,9.40
2022-11-10T13:28:53.679Z,9.58
2022-11-10T13:31:49.064Z,9.77
2022-11-10T13:34:31.915Z,9.93
2022-11-10T13:37:00.707Z,10.02
2022-11-10T13:39:31.212Z,10.09
2022-11-10T13:42:04.173Z,10.18
2022-11-10T13:44:51.716Z,10.27
2022-11-10T13:47:46.186Z,10.43
2022-11-10T13:50:26.894Z,10.55
2022-11-10T13:53:11.708Z,10.47
2022-11-10T13:55:52.971Z,10.34
2022-11-10T13:58:25.926Z,10.33
2022-11-10T14:01:22.770Z,10.32
2022-11-10T14:03:56.826Z,10.36
2022-11-10T14:06:27.053Z,10.36
2022-11-10T14:09:00.496Z,10.40
2022-11-10T14:11:34.314Z,10.43
2022-11-10T14:14:11.133Z,10.39
2022-11-10T14:16:42.643Z,10.41
2022-11-10T14:19:29.899Z,10.35
2022-11-10T14:21:59.713Z,10.30
2022-11-10T14:24:29.233Z,10.27
2022-11-10T14:27:00.714Z,10.19
2022-11-10T14:29:33.921Z,10.19
2022-11-10T14:32:03.785Z,10.17
2022-11-10T14:34:37.006Z,10.17
2022-11-10T14:37:04.765Z,10.19
2022-11-10T14:39:33.855Z,10.22
2022-11-10T14:42:04.293Z,10.19
2022-11-10T14:44:33.370Z,10.13
2022-11-10T14:47:15.651Z,10.12
2022-11-10T14:50:03.691Z,10.10
2022-11-10T14:52:43.754Z,9.96
2022-11-10T14:55:16.824Z,9.84
2022-11-10T14:57:51.140Z,9.71
2022-11-10T15:00:23.709Z,9.52
2022-11-10T15:02:52.169Z,9.40
2022-11-10T15:05:20.945Z,9.17
2022-11-10T15:07:55.932Z,8.93
2022-11-10T15:10:25.790Z,8.70
2022-11-10T15:13:02.082Z,8.57
2022-11-10T15:15:30.222Z,8.46
2022-11-10T15:18:02.268Z,8.35
2022-11-10T15:20:41.668Z,8.15
2022-11-10T15:23:23.473Z,8.02
2022-11-10T15:25:53.354Z,7.95
2022-11-10T15:28:29.519Z,7.71
2022-11-10T15:30:59.219Z,7.33
2022-11-10T15:33:29.232Z,7.00
2022-11-10T15:36:15.449Z,6.95
2022-11-10T15:38:42.520Z,6.75
2022-11-10T15:41:12.782Z,6.70
2022-11-10T15:43:40.301Z,6.53
2022-11-10T15:46:17.727Z,6.27
2022-11-10T15:48:48.933Z,6.04
2022-11-10T15:51:23.022Z,5.67
2022-11-10T15:53:53.938Z,5.43
2022-11-10T15:56:23.930Z,5.37
2022-11-10T15:58:52.648Z,5.30
2022-11-10T16:01:32.641Z,5.30
2022-11-10T16:03:59.730Z,5.25
2022-11-10T16:06:30.326Z,5.37
2022-11-10T16:08:58.451Z,5.52
2022-11-10T16:11:25.578Z,5.48
2022-11-10T16:13:54.364Z,5.30
2022-11-10T16:16:21.930Z,5.20
2022-11-10T16:18:48.728Z,5.22
2022-11-10T16:21:16.978Z,4.75
2022-11-10T16:23:45.842Z,4.87
2022-11-10T16:26:14.435Z,4.96
2022-11-10T16:28:41.691Z,4.93
2022-11-10T16:31:10.149Z,4.91
2022-11-10T16:33:37.694Z,4.79
2022-11-10T16:36:04.863Z,4.60
2022-11-10T16:38:32.829Z,4.73
2022-11-10T16:41:02.818Z,4.76
2022-11-10T16:43:31.514Z,4.81
2022-11-10T16:46:02.039Z,4.62
2022-11-10T16:48:32.728Z,4.67
2022-11-10T16:51:01.594Z,4.63
2022-11-10T16:53:31.262Z,4.64
2022-11-10T16:55:59.683Z,4.48
2022-11-10T16:58:27.794Z,4.41
2022-11-10T17:00:58.499Z,4.36
2022-11-10T17:03:31.763Z,4.13
2022-11-10T17:05:59.629Z,4.10
2022-11-10T17:08:29.424Z,4.25
2022-11-10T17:10:57.271Z,4.24
2022-11-10T17:13:24.741Z,4.25
2022-11-10T17:15:59.897Z,4.23
2022-11-10T17:18:27.752Z,4.16
2022-11-10T17:20:55.056Z,4.07
2022-11-10T17:23:24.321Z,4.04
2022-11-10T17:25:52.970Z,3.74
2022-11-10T17:28:23.088Z,3.88
2022-11-10T17:30:51.420Z,3.93
2022-11-10T17:33:21.424Z,3.97
2022-11-10T17:35:50.721Z,3.90
2022-11-10T17:38:24.084Z,3.93
2022-11-10T17:40:52.609Z,3.94
2022-11-10T17:43:23.397Z,3.79
2022-11-10T17:45:51.066Z,3.82
2022-11-10T17:48:25.646Z,3.76
2022-11-10T17:50:52.725Z,3.42
2022-11-10T17:53:24.372Z,3.35
2022-11-10T17:55:51.783Z,3.29
2022-11-10T17:58:21.121Z,3.57
2022-11-10T18:00:48.388Z,3.54
2022-11-10T18:03:18.568Z,3.71
2022-11-10T18:05:47.585Z,3.67
2022-11-10T18:08:15.929Z,3.47
2022-11-10T18:10:47.937Z,3.53
2022-11-10T18:13:15.189Z,3.54
2022-11-10T18:15:42.891Z,3.52
2022-11-10T18:18:13.497Z,3.43
2022-11-10T18:20:40.724Z,3.49
2022-11-10T18:23:09.678Z,3.48
2022-11-10T18:25:37.469Z,3.52
2022-11-10T18:28:04.590Z,3.53
2022-11-10T18:30:35.034Z,3.50
2022-11-10T18:33:02.399Z,3.44
2022-11-10T18:35:29.440Z,3.39
2022-11-10T18:37:58.510Z,3.37
2022-11-10T18:40:27.081Z,3.39
2022-11-10T18:42:56.074Z,3.43
2022-11-10T18:45:23.184Z,3.44
2022-11-10T18:47:53.373Z,3.49
2022-11-10T18:50:20.222Z,3.42
2022-11-10T18:52:47.010Z,3.32
2022-11-10T18:55:13.823Z,3.35
2022-11-10T18:57:45.558Z,3.32
2022-11-10T19:00:13.344Z,2.99
2022-11-10T19:02:41.927Z,2.99
2022-11-10T19:05:09.562Z,3.17
2022-11-10T19:07:36.435Z,3.27
2022-11-10T19:10:04.166Z,3.21
2022-11-10T19:12:31.929Z,3.27
2022-11-10T19:15:00.334Z,3.32
2022-11-10T19:17:27.366Z,3.44
2022-11-10T19:19:56.657Z,3.57
2022-11-10T19:22:23.980Z,3.64
2022-11-10T19:25:07.692Z,3.60
2022-11-10T19:27:35.850Z,3.70
2022-11-10T19:30:06.356Z,3.71
2022-11-10T19:32:33.394Z,3.73
2022-11-10T19:35:01.381Z,3.79
2022-11-10T19:37:32.138Z,3.85
2022-11-10T19:40:02.317Z,3.90
2022-11-10T19:42:29.108Z,3.95
2022-11-10T19:44:55.982Z,3.97
2022-11-10T19:47:24.768Z,3.92
2022-11-10T19:49:53.770Z,4.02
2022-11-10T19:52:20.575Z,4.03
2022-11-10T19:54:47.752Z,3.94
2022-11-10T19:57:14.481Z,4.02
2022-11-10T19:59:41.701Z,3.95
2022-11-10T20:02:13.187Z,3.99
2022-11-10T20:04:42.904Z,4.03
2022-11-10T20:07:09.658Z,3.98
2022-11-10T20:09:36.586Z,3.97
2022-11-10T20:12:03.753Z,4.02
2022-11-10T20:14:30.574Z,3.97
2022-11-10T20:16:58.951Z,3.83
2022-11-10T20:19:25.737Z,3.73
2022-11-10T20:21:53.961Z,3.73
2022-11-10T20:24:20.900Z,3.72
2022-11-10T20:26:49.524Z,3.71
2022-11-10T20:29:16.701Z,3.85
2022-11-10T20:31:43.524Z,3.85
2022-11-10T20:34:10.547Z,3.85
2022-11-10T20:36:37.339Z,3.68
2022-11-10T20:39:06.857Z,3.79
2022-11-10T20:41:33.603Z,3.77
2022-11-10T20:44:03.416Z,3.72
2022-11-10T20:49:19.056Z,3.83
2022-11-10T20:51:45.875Z,3.77
2022-11-10T20:54:14.340Z,3.82
2022-11-10T20:56:41.090Z,3.77
2022-11-10T20:59:08.928Z,3.88
2022-11-10T21:01:35.840Z,3.87
2022-11-10T21:04:03.032Z,3.86
2022-11-10T21:06:29.824Z,3.81
2022-11-10T21:08:56.697Z,3.79
2022-11-10T21:11:28.820Z,3.74
2022-11-10T21:13:58.571Z,3.85
2022-11-10T21:16:25.293Z,3.87
2022-11-10T21:18:55.322Z,3.86
2022-11-10T21:21:23.586Z,3.90
2022-11-10T21:23:50.578Z,3.93
2022-11-10T21:26:19.670Z,3.99
2022-11-10T21:28:47.863Z,3.95
2022-11-10T21:31:14.670Z,3.86
2022-11-10T21:33:41.410Z,3.95
2022-11-10T21:36:09.065Z,3.86
2022-11-10T21:38:35.777Z,3.91
2022-11-10T21:41:03.797Z,3.78
2022-11-10T21:43:30.839Z,3.69
2022-11-10T21:46:00.305Z,3.68
2022-11-10T21:48:27.267Z,3.70
2022-11-10T21:51:00.755Z,3.63
2022-11-10T21:53:27.920Z,3.58
2022-11-10T21:55:57.526Z,3.66
2022-11-10T21:58:24.553Z,3.61
2022-11-10T22:00:55.187Z,3.68
2022-11-10T22:03:23.630Z,3.59
2022-11-10T22:05:52.930Z,3.53
2022-11-10T22:08:21.991Z,3.46
2022-11-10T22:10:48.965Z,3.39
2022-11-10T22:13:19.139Z,3.38
2022-11-10T22:15:46.050Z,3.41
2022-11-10T22:18:14.614Z,3.36
2022-11-10T22:20:43.330Z,3.29
2022-11-10T22:23:10.454Z,3.34
2022-11-10T22:25:38.167Z,3.27
2022-11-10T22:28:06.409Z,3.31
2022-11-10T22:30:33.255Z,3.24
2022-11-10T22:33:00.113Z,3.24
2022-11-10T22:35:26.835Z,3.26
2022-11-10T22:37:55.311Z,3.29
2022-11-10T22:40:22.117Z,3.36
2022-11-10T22:42:48.944Z,3.44
2022-11-10T22:45:15.953Z,3.51
2022-11-10T22:47:42.678Z,3.62
2022-11-10T22:50:11.757Z,3.67
2022-11-10T22:52:38.477Z,3.64
2022-11-10T22:55:07.608Z,3.75
2022-11-10T22:57:34.621Z,3.90
2022-11-10T23:00:01.597Z,3.97
2022-11-10T23:02:28.614Z,4.00
2022-11-10T23:04:55.468Z,3.96
2022-11-10T23:07:22.347Z,3.93
2022-11-10T23:09:49.270Z,3.98
2022-11-10T23:12:17.646Z,4.07
2022-11-10T23:14:45.890Z,4.03
2022-11-10T23:17:12.671Z,4.02
2022-11-10T23:19:39.701Z,4.14
2022-11-10T23:22:06.474Z,4.14
2022-11-10T23:24:34.394Z,4.13
2022-11-10T23:27:01.245Z,4.11
2022-11-10T23:29:30.438Z,4.18
2022-11-10T23:31:58.305Z,4.21
2022-11-10T23:34:25.369Z,4.14
2022-11-10T23:36:53.204Z,4.18
2022-11-10T23:39:20.095Z,4.28
2022-11-10T23:41:46.964Z,4.25
2022-11-10T23:44:13.776Z,4.24
2022-11-10T23:46:42.334Z,4.38
2022-11-10T23:49:09.068Z,4.38
2022-11-10T23:51:36.931Z,4.31
2022-11-10T23:54:03.880Z,4.24
2022-11-10T23:56:31.955Z,4.28
2022-11-10T23:58:58.716Z,4.27
